sensor_id;sensor_type;location;lat;lon;timestamp;P1;durP1;ratioP1;P2;durP2;ratioP2
43048;SDS011;28673;44.412;11.918;2023-02-23T00:01:34;70.28;;;33.75;;
43048;SDS011;28673;44.412;11.918;2023-02-23T00:04:01;78.30;;;35.55;;
43048;SDS011;28673;44.412;11.918;2023-02-23T00:06:28;80.65;;;34.80;;
43048;SDS011;28673;44.412;11.918;2023-02-23T00:08:55;80.65;;;39.33;;
43048;SDS011;28673;44.412;11.918;2023-02-23T00:11:22;70.95;;;35.30;;
43048;SDS011;28673;44.412;11.918;2023-02-23T00:13:49;83.07;;;37.97;;
43048;SDS011;28673;44.412;11.918;2023-02-23T00:16:16;72.85;;;33.22;;
43048;SDS011;28673;44.412;11.918;2023-02-23T00:18:45;81.90;;;38.55;;
43048;SDS011;28673;44.412;11.918;2023-02-23T00:23:46;81.82;;;38.55;;
43048;SDS011;28673;44.412;11.918;2023-02-23T00:26:14;70.38;;;33.45;;
43048;SDS011;28673;44.412;11.918;2023-02-23T00:28:45;84.38;;;37.75;;
43048;SDS011;28673;44.412;11.918;2023-02-23T00:31:13;82.07;;;38.20;;
43048;SDS011;28673;44.412;11.918;2023-02-23T00:33:39;76.10;;;37.42;;
43048;SDS011;28673;44.412;11.918;2023-02-23T00:36:10;77.75;;;38.05;;
43048;SDS011;28673;44.412;11.918;2023-02-23T00:38:39;71.63;;;32.55;;
43048;SDS011;28673;44.412;11.918;2023-02-23T00:41:10;83.47;;;37.70;;
43048;SDS011;28673;44.412;11.918;2023-02-23T00:43:39;75.72;;;34.58;;
43048;SDS011;28673;44.412;11.918;2023-02-23T00:46:15;73.97;;;36.28;;
43048;SDS011;28673;44.412;11.918;2023-02-23T00:51:09;67.95;;;34.47;;
43048;SDS011;28673;44.412;11.918;2023-02-23T00:53:38;72.63;;;36.97;;
43048;SDS011;28673;44.412;11.918;2023-02-23T00:56:06;88.45;;;38.67;;
43048;SDS011;28673;44.412;11.918;2023-02-23T00:58:35;84.45;;;37.58;;
43048;SDS011;28673;44.412;11.918;2023-02-23T01:01:04;79.05;;;37.15;;
43048;SDS011;28673;44.412;11.918;2023-02-23T01:03:34;86.63;;;38.53;;
43048;SDS011;28673;44.412;11.918;2023-02-23T01:06:03;84.15;;;39.95;;
43048;SDS011;28673;44.412;11.918;2023-02-23T01:08:31;76.60;;;37.05;;
43048;SDS011;28673;44.412;11.918;2023-02-23T01:10:58;70.50;;;35.67;;
43048;SDS011;28673;44.412;11.918;2023-02-23T01:13:30;72.88;;;35.30;;
43048;SDS011;28673;44.412;11.918;2023-02-23T01:15:56;81.85;;;38.13;;
43048;SDS011;28673;44.412;11.918;2023-02-23T01:18:24;80.60;;;36.65;;
43048;SDS011;28673;44.412;11.918;2023-02-23T01:20:50;76.78;;;38.92;;
43048;SDS011;28673;44.412;11.918;2023-02-23T01:23:16;88.25;;;35.85;;
43048;SDS011;28673;44.412;11.918;2023-02-23T01:25:45;77.95;;;37.88;;
43048;SDS011;28673;44.412;11.918;2023-02-23T01:28:12;78.18;;;36.50;;
43048;SDS011;28673;44.412;11.918;2023-02-23T01:30:38;78.03;;;37.05;;
43048;SDS011;28673;44.412;11.918;2023-02-23T01:33:06;83.13;;;37.05;;
43048;SDS011;28673;44.412;11.918;2023-02-23T01:35:33;80.80;;;38.90;;
43048;SDS011;28673;44.412;11.918;2023-02-23T01:37:59;76.40;;;36.88;;
43048;SDS011;28673;44.412;11.918;2023-02-23T01:40:26;74.88;;;36.90;;
43048;SDS011;28673;44.412;11.918;2023-02-23T01:42:56;79.30;;;36.80;;
43048;SDS011;28673;44.412;11.918;2023-02-23T01:45:45;75.20;;;36.97;;
43048;SDS011;28673;44.412;11.918;2023-02-23T01:48:15;79.45;;;37.55;;
43048;SDS011;28673;44.412;11.918;2023-02-23T01:50:49;80.63;;;38.70;;
43048;SDS011;28673;44.412;11.918;2023-02-23T01:53:20;78.85;;;38.10;;
43048;SDS011;28673;44.412;11.918;2023-02-23T01:55:48;81.07;;;35.25;;
43048;SDS011;28673;44.412;11.918;2023-02-23T01:58:21;71.40;;;35.20;;
43048;SDS011;28673;44.412;11.918;2023-02-23T02:00:55;70.93;;;36.35;;
43048;SDS011;28673;44.412;11.918;2023-02-23T02:03:25;74.53;;;35.28;;
43048;SDS011;28673;44.412;11.918;2023-02-23T02:05:56;69.43;;;33.20;;
43048;SDS011;28673;44.412;11.918;2023-02-23T02:08:26;67.90;;;34.38;;
43048;SDS011;28673;44.412;11.918;2023-02-23T02:10:58;68.03;;;31.83;;
43048;SDS011;28673;44.412;11.918;2023-02-23T02:13:25;62.22;;;31.58;;
43048;SDS011;28673;44.412;11.918;2023-02-23T02:16:01;62.40;;;31.00;;
43048;SDS011;28673;44.412;11.918;2023-02-23T02:19:14;68.38;;;31.92;;
43048;SDS011;28673;44.412;11.918;2023-02-23T02:27:19;62.42;;;32.45;;
43048;SDS011;28673;44.412;11.918;2023-02-23T02:38:29;84.30;;;37.15;;
43048;SDS011;28673;44.412;11.918;2023-02-23T02:46:52;80.63;;;36.65;;
43048;SDS011;28673;44.412;11.918;2023-02-23T02:49:28;77.47;;;35.05;;
43048;SDS011;28673;44.412;11.918;2023-02-23T02:52:18;73.60;;;35.72;;
43048;SDS011;28673;44.412;11.918;2023-02-23T02:55:06;86.35;;;38.22;;
43048;SDS011;28673;44.412;11.918;2023-02-23T02:57:40;75.80;;;38.38;;
43048;SDS011;28673;44.412;11.918;2023-02-23T03:00:21;84.15;;;37.03;;
43048;SDS011;28673;44.412;11.918;2023-02-23T03:06:21;61.58;;;33.03;;
43048;SDS011;28673;44.412;11.918;2023-02-23T03:15:41;67.28;;;35.78;;
43048;SDS011;28673;44.412;11.918;2023-02-23T03:18:53;75.65;;;36.28;;
43048;SDS011;28673;44.412;11.918;2023-02-23T03:24:53;58.83;;;32.50;;
43048;SDS011;28673;44.412;11.918;2023-02-23T03:27:49;69.93;;;36.85;;
43048;SDS011;28673;44.412;11.918;2023-02-23T03:30:57;65.20;;;33.95;;
43048;SDS011;28673;44.412;11.918;2023-02-23T03:40:09;68.70;;;35.25;;
43048;SDS011;28673;44.412;11.918;2023-02-23T03:42:56;72.60;;;37.72;;
43048;SDS011;28673;44.412;11.918;2023-02-23T03:46:01;66.20;;;33.22;;
43048;SDS011;28673;44.412;11.918;2023-02-23T03:48:50;69.10;;;34.97;;
43048;SDS011;28673;44.412;11.918;2023-02-23T03:51:37;77.28;;;39.05;;
43048;SDS011;28673;44.412;11.918;2023-02-23T03:54:26;66.50;;;35.88;;
43048;SDS011;28673;44.412;11.918;2023-02-23T03:57:21;74.40;;;37.75;;
43048;SDS011;28673;44.412;11.918;2023-02-23T04:00:10;65.20;;;35.40;;
43048;SDS011;28673;44.412;11.918;2023-02-23T04:02:59;68.65;;;36.38;;
43048;SDS011;28673;44.412;11.918;2023-02-23T04:05:46;69.80;;;34.03;;
43048;SDS011;28673;44.412;11.918;2023-02-23T04:08:34;72.75;;;37.67;;
43048;SDS011;28673;44.412;11.918;2023-02-23T04:14:42;60.58;;;33.88;;
43048;SDS011;28673;44.412;11.918;2023-02-23T04:17:15;49.00;;;30.05;;
43048;SDS011;28673;44.412;11.918;2023-02-23T04:19:49;52.10;;;29.75;;
43048;SDS011;28673;44.412;11.918;2023-02-23T04:22:19;48.35;;;30.55;;
43048;SDS011;28673;44.412;11.918;2023-02-23T04:24:45;44.17;;;28.15;;
43048;SDS011;28673;44.412;11.918;2023-02-23T04:27:11;46.55;;;28.85;;
43048;SDS011;28673;44.412;11.918;2023-02-23T04:32:41;42.63;;;26.70;;
43048;SDS011;28673;44.412;11.918;2023-02-23T04:35:08;39.28;;;23.83;;
43048;SDS011;28673;44.412;11.918;2023-02-23T04:37:34;38.47;;;25.80;;
43048;SDS011;28673;44.412;11.918;2023-02-23T04:40:03;40.65;;;25.15;;
43048;SDS011;28673;44.412;11.918;2023-02-23T04:42:30;43.53;;;27.65;;
43048;SDS011;28673;44.412;11.918;2023-02-23T04:45:15;39.05;;;24.33;;
43048;SDS011;28673;44.412;11.918;2023-02-23T04:47:42;35.75;;;24.00;;
43048;SDS011;28673;44.412;11.918;2023-02-23T04:53:11;42.22;;;26.70;;
43048;SDS011;28673;44.412;11.918;2023-02-23T04:55:55;39.75;;;26.33;;
43048;SDS011;28673;44.412;11.918;2023-02-23T04:58:21;36.63;;;24.25;;
43048;SDS011;28673;44.412;11.918;2023-02-23T05:00:47;42.42;;;26.58;;
43048;SDS011;28673;44.412;11.918;2023-02-23T05:03:14;40.10;;;25.58;;
43048;SDS011;28673;44.412;11.918;2023-02-23T05:05:59;42.85;;;27.27;;
43048;SDS011;28673;44.412;11.918;2023-02-23T05:11:10;43.80;;;26.65;;
43048;SDS011;28673;44.412;11.918;2023-02-23T05:13:36;43.30;;;26.60;;
43048;SDS011;28673;44.412;11.918;2023-02-23T05:16:03;43.65;;;26.98;;
43048;SDS011;28673;44.412;11.918;2023-02-23T05:18:47;40.13;;;27.75;;
43048;SDS011;28673;44.412;11.918;2023-02-23T05:21:13;46.30;;;28.38;;
43048;SDS011;28673;44.412;11.918;2023-02-23T05:23:39;52.30;;;29.15;;
43048;SDS011;28673;44.412;11.918;2023-02-23T05:26:06;48.78;;;29.25;;
43048;SDS011;28673;44.412;11.918;2023-02-23T05:28:34;44.17;;;28.10;;
43048;SDS011;28673;44.412;11.918;2023-02-23T05:31:20;51.30;;;28.23;;
43048;SDS011;28673;44.412;11.918;2023-02-23T05:33:46;48.75;;;29.23;;
43048;SDS011;28673;44.412;11.918;2023-02-23T05:36:49;53.30;;;30.52;;
43048;SDS011;28673;44.412;11.918;2023-02-23T05:42:18;45.00;;;28.27;;
43048;SDS011;28673;44.412;11.918;2023-02-23T05:44:44;50.47;;;30.42;;
43048;SDS011;28673;44.412;11.918;2023-02-23T05:47:10;48.83;;;30.92;;
43048;SDS011;28673;44.412;11.918;2023-02-23T05:49:36;45.22;;;29.58;;
43048;SDS011;28673;44.412;11.918;2023-02-23T05:52:03;45.55;;;27.75;;
43048;SDS011;28673;44.412;11.918;2023-02-23T05:54:29;47.55;;;29.25;;
43048;SDS011;28673;44.412;11.918;2023-02-23T05:56:58;49.03;;;27.30;;
43048;SDS011;28673;44.412;11.918;2023-02-23T05:59:32;51.20;;;28.15;;
43048;SDS011;28673;44.412;11.918;2023-02-23T06:05:02;40.15;;;27.67;;
43048;SDS011;28673;44.412;11.918;2023-02-23T06:12:57;38.03;;;26.58;;
43048;SDS011;28673;44.412;11.918;2023-02-23T06:18:09;40.97;;;30.60;;
43048;SDS011;28673;44.412;11.918;2023-02-23T06:20:35;42.53;;;28.33;;
43048;SDS011;28673;44.412;11.918;2023-02-23T06:23:02;40.08;;;26.27;;
43048;SDS011;28673;44.412;11.918;2023-02-23T06:25:30;47.00;;;30.30;;
43048;SDS011;28673;44.412;11.918;2023-02-23T06:28:15;46.08;;;28.33;;
43048;SDS011;28673;44.412;11.918;2023-02-23T06:30:41;47.03;;;30.67;;
43048;SDS011;28673;44.412;11.918;2023-02-23T06:33:29;37.80;;;26.52;;
43048;SDS011;28673;44.412;11.918;2023-02-23T06:35:55;42.90;;;27.85;;
43048;SDS011;28673;44.412;11.918;2023-02-23T06:38:28;46.30;;;28.67;;
43048;SDS011;28673;44.412;11.918;2023-02-23T06:40:55;48.95;;;31.45;;
43048;SDS011;28673;44.412;11.918;2023-02-23T06:43:21;45.75;;;28.25;;
43048;SDS011;28673;44.412;11.918;2023-02-23T06:45:47;52.72;;;32.25;;
43048;SDS011;28673;44.412;11.918;2023-02-23T06:51:06;45.75;;;28.55;;
43048;SDS011;28673;44.412;11.918;2023-02-23T06:53:32;46.53;;;28.25;;
43048;SDS011;28673;44.412;11.918;2023-02-23T06:56:17;46.47;;;30.65;;
43048;SDS011;28673;44.412;11.918;2023-02-23T07:01:28;50.22;;;29.65;;
43048;SDS011;28673;44.412;11.918;2023-02-23T07:04:14;55.10;;;30.67;;
43048;SDS011;28673;44.412;11.918;2023-02-23T07:06:47;52.88;;;31.92;;
43048;SDS011;28673;44.412;11.918;2023-02-23T07:09:14;73.47;;;41.70;;
43048;SDS011;28673;44.412;11.918;2023-02-23T07:12:00;62.22;;;34.63;;
43048;SDS011;28673;44.412;11.918;2023-02-23T07:15:04;69.75;;;39.28;;
43048;SDS011;28673;44.412;11.918;2023-02-23T07:17:30;72.72;;;39.05;;
43048;SDS011;28673;44.412;11.918;2023-02-23T07:22:41;66.93;;;38.33;;
43048;SDS011;28673;44.412;11.918;2023-02-23T07:25:07;70.43;;;38.95;;
43048;SDS011;28673;44.412;11.918;2023-02-23T07:27:33;78.00;;;39.97;;
43048;SDS011;28673;44.412;11.918;2023-02-23T07:30:00;71.03;;;37.50;;
43048;SDS011;28673;44.412;11.918;2023-02-23T07:32:47;69.25;;;37.03;;
43048;SDS011;28673;44.412;11.918;2023-02-23T07:35:31;73.53;;;37.90;;
43048;SDS011;28673;44.412;11.918;2023-02-23T07:37:57;104.60;;;44.33;;
43048;SDS011;28673;44.412;11.918;2023-02-23T07:40:23;105.97;;;44.53;;
43048;SDS011;28673;44.412;11.918;2023-02-23T07:42:50;105.68;;;47.00;;
43048;SDS011;28673;44.412;11.918;2023-02-23T07:45:35;106.38;;;46.88;;
43048;SDS011;28673;44.412;11.918;2023-02-23T07:51:09;97.63;;;41.67;;
43048;SDS011;28673;44.412;11.918;2023-02-23T07:54:00;93.57;;;44.45;;
43048;SDS011;28673;44.412;11.918;2023-02-23T07:56:28;87.38;;;38.20;;
43048;SDS011;28673;44.412;11.918;2023-02-23T07:58:54;110.32;;;45.63;;
43048;SDS011;28673;44.412;11.918;2023-02-23T08:01:20;103.30;;;46.15;;
43048;SDS011;28673;44.412;11.918;2023-02-23T08:03:47;99.70;;;46.00;;
43048;SDS011;28673;44.412;11.918;2023-02-23T08:06:15;99.60;;;46.42;;
43048;SDS011;28673;44.412;11.918;2023-02-23T08:08:42;105.97;;;45.85;;
43048;SDS011;28673;44.412;11.918;2023-02-23T08:11:08;106.57;;;47.38;;
43048;SDS011;28673;44.412;11.918;2023-02-23T08:16:35;112.18;;;50.30;;
43048;SDS011;28673;44.412;11.918;2023-02-23T08:19:19;108.88;;;48.58;;
43048;SDS011;28673;44.412;11.918;2023-02-23T08:21:48;106.28;;;48.78;;
43048;SDS011;28673;44.412;11.918;2023-02-23T08:24:15;111.32;;;48.40;;
43048;SDS011;28673;44.412;11.918;2023-02-23T08:26:41;113.63;;;49.38;;
43048;SDS011;28673;44.412;11.918;2023-02-23T08:29:09;113.57;;;52.03;;
43048;SDS011;28673;44.412;11.918;2023-02-23T08:31:54;120.05;;;52.22;;
43048;SDS011;28673;44.412;11.918;2023-02-23T08:34:20;110.07;;;51.45;;
43048;SDS011;28673;44.412;11.918;2023-02-23T08:36:47;102.22;;;51.15;;
43048;SDS011;28673;44.412;11.918;2023-02-23T08:39:32;123.88;;;57.10;;
43048;SDS011;28673;44.412;11.918;2023-02-23T08:41:59;115.57;;;54.58;;
43048;SDS011;28673;44.412;11.918;2023-02-23T08:44:43;116.82;;;55.67;;
43048;SDS011;28673;44.412;11.918;2023-02-23T08:47:10;123.20;;;55.70;;
43048;SDS011;28673;44.412;11.918;2023-02-23T08:49:36;130.60;;;58.20;;
43048;SDS011;28673;44.412;11.918;2023-02-23T08:52:02;129.00;;;56.15;;
43048;SDS011;28673;44.412;11.918;2023-02-23T08:57:12;113.57;;;54.83;;
43048;SDS011;28673;44.412;11.918;2023-02-23T08:59:38;121.30;;;56.42;;
43048;SDS011;28673;44.412;11.918;2023-02-23T09:02:05;107.65;;;55.83;;
43048;SDS011;28673;44.412;11.918;2023-02-23T09:04:33;122.32;;;58.90;;
43048;SDS011;28673;44.412;11.918;2023-02-23T09:07:19;114.72;;;58.08;;
43048;SDS011;28673;44.412;11.918;2023-02-23T09:09:54;116.93;;;57.13;;
43048;SDS011;28673;44.412;11.918;2023-02-23T09:12:20;124.38;;;59.60;;
43048;SDS011;28673;44.412;11.918;2023-02-23T09:20:18;122.97;;;58.10;;
43048;SDS011;28673;44.412;11.918;2023-02-23T09:28:34;104.10;;;54.97;;
43048;SDS011;28673;44.412;11.918;2023-02-23T09:31:07;102.93;;;52.70;;
43048;SDS011;28673;44.412;11.918;2023-02-23T09:33:34;99.65;;;52.38;;
43048;SDS011;28673;44.412;11.918;2023-02-23T09:36:14;107.70;;;54.90;;
43048;SDS011;28673;44.412;11.918;2023-02-23T09:48:24;97.97;;;51.35;;
43048;SDS011;28673;44.412;11.918;2023-02-23T09:50:22;101.15;;;53.05;;
43048;SDS011;28673;44.412;11.918;2023-02-23T09:52:52;97.90;;;52.50;;
43048;SDS011;28673;44.412;11.918;2023-02-23T09:55:41;101.75;;;51.45;;
43048;SDS011;28673;44.412;11.918;2023-02-23T09:58:24;102.90;;;53.50;;
43048;SDS011;28673;44.412;11.918;2023-02-23T10:01:01;102.10;;;52.95;;
43048;SDS011;28673;44.412;11.918;2023-02-23T10:03:34;95.30;;;48.90;;
43048;SDS011;28673;44.412;11.918;2023-02-23T10:11:36;94.82;;;52.80;;
43048;SDS011;28673;44.412;11.918;2023-02-23T10:22:39;108.82;;;55.85;;
43048;SDS011;28673;44.412;11.918;2023-02-23T10:25:20;102.82;;;52.65;;
43048;SDS011;28673;44.412;11.918;2023-02-23T10:27:55;95.70;;;51.65;;
43048;SDS011;28673;44.412;11.918;2023-02-23T10:32:58;102.32;;;49.33;;
43048;SDS011;28673;44.412;11.918;2023-02-23T10:35:34;100.18;;;51.97;;
43048;SDS011;28673;44.412;11.918;2023-02-23T10:41:26;94.07;;;47.30;;
43048;SDS011;28673;44.412;11.918;2023-02-23T10:44:20;83.63;;;42.08;;
43048;SDS011;28673;44.412;11.918;2023-02-23T10:47:13;81.53;;;43.60;;
43048;SDS011;28673;44.412;11.918;2023-02-23T10:54:59;83.38;;;43.75;;
43048;SDS011;28673;44.412;11.918;2023-02-23T10:57:29;99.88;;;42.33;;
43048;SDS011;28673;44.412;11.918;2023-02-23T11:02:42;78.45;;;42.05;;
43048;SDS011;28673;44.412;11.918;2023-02-23T11:05:54;71.85;;;41.42;;
43048;SDS011;28673;44.412;11.918;2023-02-23T11:11:26;71.70;;;39.78;;
43048;SDS011;28673;44.412;11.918;2023-02-23T11:14:15;69.32;;;39.00;;
43048;SDS011;28673;44.412;11.918;2023-02-23T11:16:41;69.18;;;39.70;;
43048;SDS011;28673;44.412;11.918;2023-02-23T11:19:13;70.20;;;37.13;;
43048;SDS011;28673;44.412;11.918;2023-02-23T11:22:17;69.05;;;37.92;;
43048;SDS011;28673;44.412;11.918;2023-02-23T11:24:47;74.68;;;41.08;;
43048;SDS011;28673;44.412;11.918;2023-02-23T11:27:19;65.07;;;38.83;;
43048;SDS011;28673;44.412;11.918;2023-02-23T11:29:48;72.60;;;41.92;;
43048;SDS011;28673;44.412;11.918;2023-02-23T11:35:09;72.78;;;39.92;;
43048;SDS011;28673;44.412;11.918;2023-02-23T11:37:58;77.07;;;40.88;;
43048;SDS011;28673;44.412;11.918;2023-02-23T11:40:29;63.63;;;37.78;;
43048;SDS011;28673;44.412;11.918;2023-02-23T11:42:57;77.35;;;41.03;;
43048;SDS011;28673;44.412;11.918;2023-02-23T11:45:53;75.93;;;42.08;;
43048;SDS011;28673;44.412;11.918;2023-02-23T11:48:26;73.32;;;37.97;;
43048;SDS011;28673;44.412;11.918;2023-02-23T11:51:22;66.72;;;40.38;;
43048;SDS011;28673;44.412;11.918;2023-02-23T11:54:16;66.57;;;38.05;;
43048;SDS011;28673;44.412;11.918;2023-02-23T11:57:05;69.32;;;39.10;;
43048;SDS011;28673;44.412;11.918;2023-02-23T11:59:32;64.97;;;36.53;;
43048;SDS011;28673;44.412;11.918;2023-02-23T12:02:18;65.57;;;37.22;;
43048;SDS011;28673;44.412;11.918;2023-02-23T12:05:19;63.05;;;36.90;;
43048;SDS011;28673;44.412;11.918;2023-02-23T12:13:46;65.88;;;36.92;;
43048;SDS011;28673;44.412;11.918;2023-02-23T12:16:43;69.32;;;37.88;;
43048;SDS011;28673;44.412;11.918;2023-02-23T12:19:22;72.00;;;39.58;;
43048;SDS011;28673;44.412;11.918;2023-02-23T12:25:02;74.55;;;36.40;;
43048;SDS011;28673;44.412;11.918;2023-02-23T12:27:52;72.57;;;38.53;;
43048;SDS011;28673;44.412;11.918;2023-02-23T12:33:16;69.93;;;38.25;;
43048;SDS011;28673;44.412;11.918;2023-02-23T12:38:53;71.18;;;38.08;;
43048;SDS011;28673;44.412;11.918;2023-02-23T12:41:37;64.93;;;36.92;;
43048;SDS011;28673;44.412;11.918;2023-02-23T12:50:38;64.63;;;37.88;;
43048;SDS011;28673;44.412;11.918;2023-02-23T13:01:26;65.05;;;37.10;;
43048;SDS011;28673;44.412;11.918;2023-02-23T13:21:25;58.40;;;31.67;;
43048;SDS011;28673;44.412;11.918;2023-02-23T13:24:06;57.50;;;32.88;;
43048;SDS011;28673;44.412;11.918;2023-02-23T13:29:40;56.05;;;32.80;;
43048;SDS011;28673;44.412;11.918;2023-02-23T13:32:09;57.60;;;32.42;;
43048;SDS011;28673;44.412;11.918;2023-02-23T13:34:52;51.60;;;32.03;;
43048;SDS011;28673;44.412;11.918;2023-02-23T13:40:58;51.10;;;32.15;;
43048;SDS011;28673;44.412;11.918;2023-02-23T13:44:14;55.85;;;32.30;;
43048;SDS011;28673;44.412;11.918;2023-02-23T13:49:33;65.22;;;33.13;;
43048;SDS011;28673;44.412;11.918;2023-02-23T13:54:58;56.22;;;32.63;;
43048;SDS011;28673;44.412;11.918;2023-02-23T13:57:30;55.17;;;33.53;;
43048;SDS011;28673;44.412;11.918;2023-02-23T14:00:05;60.13;;;33.90;;
43048;SDS011;28673;44.412;11.918;2023-02-23T14:02:44;64.38;;;33.92;;
43048;SDS011;28673;44.412;11.918;2023-02-23T14:05:30;55.63;;;32.15;;
43048;SDS011;28673;44.412;11.918;2023-02-23T14:08:05;60.08;;;34.90;;
43048;SDS011;28673;44.412;11.918;2023-02-23T14:10:42;58.42;;;34.92;;
43048;SDS011;28673;44.412;11.918;2023-02-23T14:15:42;59.15;;;34.95;;
43048;SDS011;28673;44.412;11.918;2023-02-23T14:26:37;58.58;;;34.75;;
43048;SDS011;28673;44.412;11.918;2023-02-23T14:29:26;56.10;;;33.38;;
43048;SDS011;28673;44.412;11.918;2023-02-23T14:34:45;59.38;;;33.85;;
43048;SDS011;28673;44.412;11.918;2023-02-23T14:37:25;69.07;;;34.78;;
43048;SDS011;28673;44.412;11.918;2023-02-23T14:40:06;60.78;;;34.40;;
43048;SDS011;28673;44.412;11.918;2023-02-23T14:42:39;59.88;;;31.52;;
43048;SDS011;28673;44.412;11.918;2023-02-23T14:45:31;70.88;;;38.03;;
43048;SDS011;28673;44.412;11.918;2023-02-23T14:48:04;65.85;;;35.53;;
43048;SDS011;28673;44.412;11.918;2023-02-23T14:50:41;65.38;;;35.22;;
43048;SDS011;28673;44.412;11.918;2023-02-23T14:56:21;69.78;;;36.40;;
43048;SDS011;28673;44.412;11.918;2023-02-23T14:58:51;66.95;;;34.17;;
43048;SDS011;28673;44.412;11.918;2023-02-23T15:01:31;69.90;;;36.28;;
43048;SDS011;28673;44.412;11.918;2023-02-23T15:04:04;70.32;;;35.13;;
43048;SDS011;28673;44.412;11.918;2023-02-23T15:06:51;74.47;;;38.53;;
43048;SDS011;28673;44.412;11.918;2023-02-23T15:09:39;66.32;;;36.53;;
43048;SDS011;28673;44.412;11.918;2023-02-23T15:15:06;66.03;;;33.17;;
43048;SDS011;28673;44.412;11.918;2023-02-23T15:17:41;61.35;;;33.58;;
43048;SDS011;28673;44.412;11.918;2023-02-23T15:20:20;63.03;;;34.70;;
43048;SDS011;28673;44.412;11.918;2023-02-23T15:22:53;63.28;;;33.03;;
43048;SDS011;28673;44.412;11.918;2023-02-23T15:30:46;68.35;;;33.88;;
43048;SDS011;28673;44.412;11.918;2023-02-23T15:33:37;63.92;;;32.17;;
43048;SDS011;28673;44.412;11.918;2023-02-23T15:36:25;65.22;;;33.90;;
43048;SDS011;28673;44.412;11.918;2023-02-23T15:39:21;63.83;;;32.67;;
43048;SDS011;28673;44.412;11.918;2023-02-23T15:44:53;66.25;;;33.42;;
43048;SDS011;28673;44.412;11.918;2023-02-23T15:47:23;59.15;;;32.15;;
43048;SDS011;28673;44.412;11.918;2023-02-23T15:49:59;52.97;;;30.02;;
43048;SDS011;28673;44.412;11.918;2023-02-23T15:52:51;51.15;;;28.83;;
43048;SDS011;28673;44.412;11.918;2023-02-23T15:55:42;52.17;;;29.63;;
43048;SDS011;28673;44.412;11.918;2023-02-23T15:58:28;54.90;;;30.05;;
43048;SDS011;28673;44.412;11.918;2023-02-23T16:04:16;53.78;;;30.80;;
43048;SDS011;28673;44.412;11.918;2023-02-23T16:09:51;71.05;;;31.40;;
43048;SDS011;28673;44.412;11.918;2023-02-23T16:12:28;66.00;;;33.35;;
43048;SDS011;28673;44.412;11.918;2023-02-23T16:14:58;73.05;;;38.90;;
43048;SDS011;28673;44.412;11.918;2023-02-23T16:17:27;75.38;;;38.40;;
43048;SDS011;28673;44.412;11.918;2023-02-23T16:20:47;74.00;;;39.13;;
43048;SDS011;28673;44.412;11.918;2023-02-23T16:23:24;78.43;;;38.25;;
43048;SDS011;28673;44.412;11.918;2023-02-23T16:26:01;71.43;;;39.88;;
43048;SDS011;28673;44.412;11.918;2023-02-23T16:28:34;78.72;;;39.33;;
43048;SDS011;28673;44.412;11.918;2023-02-23T16:31:06;87.97;;;40.10;;
43048;SDS011;28673;44.412;11.918;2023-02-23T16:36:21;82.32;;;42.13;;
43048;SDS011;28673;44.412;11.918;2023-02-23T16:41:44;86.97;;;40.72;;
43048;SDS011;28673;44.412;11.918;2023-02-23T16:44:34;85.60;;;42.70;;
43048;SDS011;28673;44.412;11.918;2023-02-23T16:49:47;84.85;;;40.35;;
43048;SDS011;28673;44.412;11.918;2023-02-23T16:52:32;93.60;;;44.42;;
43048;SDS011;28673;44.412;11.918;2023-02-23T16:55:00;90.60;;;43.53;;
43048;SDS011;28673;44.412;11.918;2023-02-23T16:57:47;91.90;;;45.10;;
43048;SDS011;28673;44.412;11.918;2023-02-23T17:00:20;96.47;;;45.75;;
43048;SDS011;28673;44.412;11.918;2023-02-23T17:02:52;92.93;;;45.35;;
43048;SDS011;28673;44.412;11.918;2023-02-23T17:05:39;98.80;;;44.25;;
43048;SDS011;28673;44.412;11.918;2023-02-23T17:08:04;93.43;;;43.75;;
43048;SDS011;28673;44.412;11.918;2023-02-23T17:10:50;95.22;;;43.45;;
43048;SDS011;28673;44.412;11.918;2023-02-23T17:16:06;98.97;;;45.13;;
43048;SDS011;28673;44.412;11.918;2023-02-23T17:18:35;90.93;;;45.28;;
43048;SDS011;28673;44.412;11.918;2023-02-23T17:21:05;95.40;;;44.72;;
43048;SDS011;28673;44.412;11.918;2023-02-23T17:23:36;88.55;;;43.83;;
43048;SDS011;28673;44.412;11.918;2023-02-23T17:26:40;84.75;;;42.90;;
43048;SDS011;28673;44.412;11.918;2023-02-23T17:29:06;90.95;;;44.17;;
43048;SDS011;28673;44.412;11.918;2023-02-23T17:31:34;92.13;;;47.50;;
43048;SDS011;28673;44.412;11.918;2023-02-23T17:34:06;96.75;;;46.63;;
43048;SDS011;28673;44.412;11.918;2023-02-23T17:36:32;97.30;;;46.42;;
43048;SDS011;28673;44.412;11.918;2023-02-23T17:39:19;84.22;;;41.17;;
43048;SDS011;28673;44.412;11.918;2023-02-23T17:41:48;82.35;;;43.92;;
43048;SDS011;28673;44.412;11.918;2023-02-23T17:44:16;95.03;;;46.80;;
43048;SDS011;28673;44.412;11.918;2023-02-23T17:46:44;98.25;;;47.05;;
43048;SDS011;28673;44.412;11.918;2023-02-23T17:49:13;104.80;;;48.53;;
43048;SDS011;28673;44.412;11.918;2023-02-23T17:51:39;119.53;;;52.15;;
43048;SDS011;28673;44.412;11.918;2023-02-23T17:54:08;115.53;;;53.00;;
43048;SDS011;28673;44.412;11.918;2023-02-23T17:56:34;115.63;;;53.00;;
43048;SDS011;28673;44.412;11.918;2023-02-23T17:59:00;115.35;;;52.15;;
43048;SDS011;28673;44.412;11.918;2023-02-23T18:01:26;115.13;;;50.42;;
43048;SDS011;28673;44.412;11.918;2023-02-23T18:03:51;116.78;;;53.33;;
43048;SDS011;28673;44.412;11.918;2023-02-23T18:06:20;114.88;;;51.80;;
43048;SDS011;28673;44.412;11.918;2023-02-23T18:08:50;114.65;;;52.08;;
43048;SDS011;28673;44.412;11.918;2023-02-23T18:11:16;111.47;;;51.78;;
43048;SDS011;28673;44.412;11.918;2023-02-23T18:14:01;115.43;;;53.50;;
43048;SDS011;28673;44.412;11.918;2023-02-23T18:16:46;122.35;;;54.05;;
43048;SDS011;28673;44.412;11.918;2023-02-23T18:19:31;119.13;;;51.08;;
43048;SDS011;28673;44.412;11.918;2023-02-23T18:22:16;108.50;;;52.65;;
43048;SDS011;28673;44.412;11.918;2023-02-23T18:25:07;105.63;;;49.65;;
43048;SDS011;28673;44.412;11.918;2023-02-23T18:30:24;97.10;;;48.28;;
43048;SDS011;28673;44.412;11.918;2023-02-23T18:33:09;107.78;;;50.45;;
43048;SDS011;28673;44.412;11.918;2023-02-23T18:35:38;104.78;;;47.40;;
43048;SDS011;28673;44.412;11.918;2023-02-23T18:38:07;95.70;;;44.90;;
43048;SDS011;28673;44.412;11.918;2023-02-23T18:43:19;102.80;;;48.63;;
43048;SDS011;28673;44.412;11.918;2023-02-23T18:46:05;104.18;;;46.85;;
43048;SDS011;28673;44.412;11.918;2023-02-23T18:54:23;105.72;;;47.30;;
43048;SDS011;28673;44.412;11.918;2023-02-23T18:56:52;99.22;;;46.72;;
43048;SDS011;28673;44.412;11.918;2023-02-23T18:59:21;97.97;;;46.20;;
43048;SDS011;28673;44.412;11.918;2023-02-23T19:01:47;115.35;;;49.30;;
43048;SDS011;28673;44.412;11.918;2023-02-23T19:04:14;100.53;;;47.05;;
43048;SDS011;28673;44.412;11.918;2023-02-23T19:06:40;96.50;;;46.05;;
43048;SDS011;28673;44.412;11.918;2023-02-23T19:09:08;100.45;;;44.90;;